ADDS METAR Data INFO
IDs: Format: Raw Decoded Include TAF

Data at: 2212 UTC 24 Jun 2018

KISN 242152Z AUTO 07007KT 10SM FEW080 FEW100 26/14 A2996 RMK AO2 LTG DSNT SE SLP135 T02560144
KISN 242052Z AUTO 04009KT 10SM CLR 25/17 A2995 RMK AO2 SLP133 T02500167 56005
KISN 241952Z AUTO 05008KT 10SM FEW090 26/16 A2995 RMK AO2 LTG DSNT NE AND E SLP133 T02560161
KISN 241852Z AUTO VRB03KT 10SM FEW095 25/14 A2996 RMK AO2 LTG DSNT NE AND E SLP137 T02500144
KISN 241752Z AUTO 18005KT 10SM CLR 24/16 A2997 RMK AO2 SLP139 T02390156 10239 20172 51006
KISN 241652Z AUTO 19003KT 10SM SCT100 22/16 A2996 RMK AO2 SLP140 T02170161
KISN 241552Z AUTO 00000KT 10SM SCT055 OVC085 19/16 A2996 RMK AO2 SLP140 T01940161
KISN 241452Z AUTO 05004KT 10SM OVC100 19/16 A2994 RMK AO2 SLP134 T01890156 53017
KISN 241352Z AUTO 01003KT 10SM BKN100 18/16 A2992 RMK AO2 SLP125 T01830156
KISN 241252Z AUTO 00000KT 10SM BKN100 18/15 A2991 RMK AO2 SLP122 T01780150
KISN 241152Z AUTO 00000KT 9SM CLR 17/16 A2989 RMK AO2 SLP116 70124 T01720156 10189 20172 53016
KISN 241052Z AUTO 04004KT 8SM FEW120 17/16 A2987 RMK AO2 SLP109 T01720156
KISN 240952Z AUTO 36004KT 10SM FEW100 SCT120 17/16 A2985 RMK AO2 SLP106 T01720156
KISN 240852Z AUTO 33005KT 10SM FEW090 18/16 A2984 RMK AO2 SLP101 T01780156 53006
KISN 240752Z AUTO 00000KT 10SM CLR 18/16 A2983 RMK AO2 SLP097 T01830156
KISN 240652Z AUTO 11004KT 10SM BKN100 OVC120 18/16 A2983 RMK AO2 SLP093 T01830156
KISN 240552Z AUTO 11004KT 10SM BKN100 OVC110 18/16 A2982 RMK AO2 SLP089 T01830156 10217 20183 402780139 51018
KISN 240452Z AUTO 02003KT 10SM OVC110 19/17 A2981 RMK AO2 SLP086 T01890167
KISN 240352Z AUTO 29004KT 10SM BKN095 OVC110 19/16 A2980 RMK AO2 SLP083 T01890161
KISN 240252Z AUTO 17003KT 10SM CLR 20/16 A2977 RMK AO2 SLP071 T02000156 51011
KISN 240152Z AUTO 09007KT 10SM FEW100 21/17 A2976 RMK AO2 LTG DSNT SE SLP071 T02110167
KISN 240052Z AUTO 05006KT 10SM OVC100 21/17 A2976 RMK AO2 SLP069 T02110167
KISN 232352Z AUTO 07004KT 10SM SCT110 22/16 A2973 RMK AO2 SLP062 60124 T02170161 10278 20172 53003
KISN 232252Z AUTO 00000KT 10SM FEW038 SCT110 20/16 A2972 RMK AO2 RAE48 SLP059 P0004 T02000161
KISN 232152Z AUTO 36004KT 7SM -RA OVC100 18/16 A2972 RMK AO2 SLP059 P0002 T01830161
KISN 232052Z AUTO 21003KT 8SM -RA FEW070 OVC100 17/16 A2972 RMK AO2 WSHFT 1942 LTG DSNT NE SLP062 P0051 60118 T01720161 50009
KISN 232030Z AUTO 24006KT 3SM +RA BR FEW044 SCT070 OVC090 17/16 A2973 RMK AO2 WSHFT 1942 P0049 T01720156
KISN 232024Z AUTO VRB03KT 2SM RA BR FEW046 SCT075 OVC095 18/16 A2973 RMK AO2 WSHFT 1942 P0046 T01780161
KISN 232002Z AUTO 18011G20KT 1SM VCTS +RA BKN037 OVC070 18/13 A2972 RMK AO2 WSHFT 1942 LTG DSNT E-S P0018 T01780133
KISN 231956Z AUTO 16011G22KT 3/4SM VCTS +RA BKN035 BKN046 OVC095 18/14 A2972 RMK AO2 WSHFT 1942 LTG DSNT N-SE P0007 T01830139
KISN 231952Z AUTO 15016G27KT 1/2SM VCTS +RA BKN029 BKN047 OVC100 18/14 A2973 RMK AO2 PK WND 15027/1946 LTG DSNT ALQDS RAB21 SLP062 P0067 T01780139
KISN 231949Z AUTO 16013G27KT 1/2SM VCTS +RA SCT026 BKN047 OVC100 18/15 A2973 RMK AO2 PK WND 15027/1946 LTG DSNT ALQDS RAB21 P0050
KISN 231852Z AUTO 30010KT 10SM FEW043 SCT060 BKN070 25/14 A2970 RMK AO2 LTG DSNT NE-S SLP046 T02500139
KISN 231831Z AUTO 26011G17KT 240V300 10SM VCTS FEW039 SCT060 28/15 A2969 RMK AO2 LTG DSNT N-SE T02780150
KISN 231752Z AUTO 27007G14KT 10SM BKN044 OVC055 26/13 A2970 RMK AO2 LTG DSNT SE AND S SLP045 T02560133 10272 20172 58004
KISN 231652Z AUTO 18006KT 10SM CLR 24/14 A2971 RMK AO2 SLP048 T02440139
KISN 231552Z AUTO VRB06KT 10SM CLR 24/13 A2970 RMK AO2 SLP047 T02440128
KISN 231452Z AUTO 18006KT 10SM CLR 22/14 A2971 RMK AO2 SLP050 T02170139 53003
KISN 231352Z AUTO 19007KT 10SM CLR 20/15 A2970 RMK AO2 SLP046 T02000150
KISN 231252Z AUTO 21004KT 10SM CLR 18/14 A2969 RMK AO2 SLP047 T01830144
KISN 231152Z AUTO 15003KT 10SM CLR 17/14 A2970 RMK AO2 SLP048 T01720144 10183 20139 53005
KISN 231052Z AUTO 00000KT 10SM CLR 14/12 A2969 RMK AO2 SLP047 T01390122